Time;durP1;ratioP1;P1;durP2;ratioP2;P2;SDS_P1;SDS_P2;PMS_P1;PMS_P2;Temp;Humidity;BMP_temperature;BMP_pressure;BME280_temperature;BME280_humidity;BME280_pressure;Samples;Min_cycle;Max_cycle;Signal;HPM_P1;HPM_P2
2021/05/11 00:00:11;;;;;;;5.17;2.65;;;;;;;12.49;47.91;99584.77;1750834;78;21191;-54
2021/05/11 00:02:38;;;;;;;3.50;2.95;;;;;;;12.43;48.09;99580.16;1757176;79;21208;-54
2021/05/11 00:05:08;;;;;;;5.00;3.20;;;;;;;12.38;48.09;99577.21;1770557;79;21108;-54
2021/05/11 00:07:35;;;;;;;2.98;2.67;;;;;;;12.35;48.32;99578.89;1779782;78;21049;-54
2021/05/11 00:10:05;;;;;;;5.40;3.10;;;;;;;12.31;48.33;99580.25;1766315;79;21140;-55
2021/05/11 00:12:33;;;;;;;2.95;2.65;;;;;;;12.25;48.48;99575.64;1766079;79;21252;-55
2021/05/11 00:15:01;;;;;;;5.62;3.77;;;;;;;12.19;48.65;99576.34;1787405;78;21013;-52
2021/05/11 00:17:31;;;;;;;3.65;2.52;;;;;;;12.10;48.83;99575.57;1768532;79;20966;-55
2021/05/11 00:19:59;;;;;;;5.47;3.55;;;;;;;12.03;48.90;99572.45;1765867;78;21678;-54
2021/05/11 00:22:27;;;;;;;4.45;2.80;;;;;;;12.01;48.99;99581.14;1772158;79;21444;-54
2021/05/11 00:24:54;;;;;;;3.20;2.83;;;;;;;11.98;48.90;99577.00;1772017;79;21353;-54
2021/05/11 00:27:22;;;;;;;6.37;2.75;;;;;;;11.96;48.93;99579.02;1785860;79;21144;-53
2021/05/11 00:29:49;;;;;;;4.00;2.75;;;;;;;11.98;48.74;99581.00;1787577;79;21161;-52
2021/05/11 00:32:17;;;;;;;3.17;2.45;;;;;;;12.01;48.62;99579.81;1792610;79;21057;-53
2021/05/11 00:34:44;;;;;;;6.58;2.92;;;;;;;11.99;48.43;99578.64;1773147;79;21074;-55
2021/05/11 00:37:12;;;;;;;2.92;2.50;;;;;;;11.99;48.48;99588.50;1782650;79;21263;-56
2021/05/11 00:39:39;;;;;;;4.58;2.72;;;;;;;11.97;48.58;99584.66;1775319;79;21074;-54
2021/05/11 00:42:07;;;;;;;2.98;2.47;;;;;;;11.97;48.66;99585.98;1771800;79;21571;-53
2021/05/11 00:44:34;;;;;;;2.67;2.35;;;;;;;11.90;48.87;99581.05;1779459;79;21134;-56
2021/05/11 00:47:04;;;;;;;4.33;2.75;;;;;;;11.85;48.94;99587.41;1774126;79;21155;-55
2021/05/11 00:49:34;;;;;;;4.00;2.27;;;;;;;11.85;49.03;99583.91;1773691;79;21342;-56
2021/05/11 00:52:03;;;;;;;4.75;2.50;;;;;;;11.80;49.13;99581.78;1775955;79;21125;-54
2021/05/11 00:54:32;;;;;;;5.55;3.30;;;;;;;11.76;49.33;99590.61;1787807;79;21109;-54
2021/05/11 00:57:00;;;;;;;3.75;2.40;;;;;;;11.71;49.50;99585.48;1774865;79;21139;-55
2021/05/11 00:59:29;;;;;;;3.00;2.52;;;;;;;11.68;49.50;99586.66;1783950;79;21118;-55
2021/05/11 01:01:59;;;;;;;2.87;2.27;;;;;;;11.67;49.63;99584.98;1779426;79;21346;-55
2021/05/11 01:04:26;;;;;;;4.67;2.42;;;;;;;11.67;49.77;99577.48;1771800;79;21110;-54
2021/05/11 01:06:54;;;;;;;5.92;3.08;;;;;;;11.69;49.77;99574.17;1772492;79;21168;-53
2021/05/11 01:09:23;;;;;;;8.88;3.15;;;;;;;11.73;49.74;99574.16;1786428;79;21153;-53
2021/05/11 01:11:51;;;;;;;4.30;2.45;;;;;;;11.73;49.63;99576.83;1780887;79;21533;-54
2021/05/11 01:14:18;;;;;;;4.10;2.60;;;;;;;11.68;49.76;99585.33;1778003;79;22301;-53
2021/05/11 01:16:49;;;;;;;4.42;3.20;;;;;;;11.62;49.93;99583.84;1773790;79;21089;-54
2021/05/11 01:24:59;;;;;;;;;;;;;;;;;;;;;
2021/05/11 02:23:47;;;;;;;2.47;2.27;;;;;;;11.34;49.55;99580.78;1770426;79;21065;-52
2021/05/11 02:26:14;;;;;;;2.98;1.90;;;;;;;11.36;49.52;99576.64;1781569;78;20925;-53
2021/05/11 02:28:42;;;;;;;2.33;1.87;;;;;;;11.38;49.48;99582.61;1757591;79;21159;-53
2021/05/11 02:31:09;;;;;;;2.60;2.08;;;;;;;11.40;49.30;99581.93;1749313;79;21167;-54
2021/05/11 02:33:37;;;;;;;4.17;1.65;;;;;;;11.42;49.26;99579.95;1771821;78;21362;-54
2021/05/11 02:36:05;;;;;;;2.83;1.60;;;;;;;11.42;49.28;99579.95;1797079;79;21061;-54
2021/05/11 02:38:32;;;;;;;3.55;1.90;;;;;;;11.44;49.26;99585.43;1783649;78;21002;-54
2021/05/11 02:41:00;;;;;;;3.00;1.70;;;;;;;11.45;49.22;99583.08;1753495;79;21234;-55
2021/05/11 02:43:32;;;;;;;2.83;1.80;;;;;;;11.43;49.36;99585.59;1726510;82;21475;-53
2021/05/11 02:45:57;;;;;;;4.10;2.40;;;;;;;11.37;49.53;99583.60;1728272;81;21292;-53
2021/05/11 02:48:25;;;;;;;3.60;2.10;;;;;;;11.32;49.74;99581.47;1779081;79;21042;-53
2021/05/11 02:50:53;;;;;;;3.77;2.22;;;;;;;11.30;49.84;99578.64;1777350;79;21555;-52
2021/05/11 02:53:20;;;;;;;3.42;1.77;;;;;;;11.32;49.91;99583.30;1774889;79;21152;-53
2021/05/11 02:55:48;;;;;;;6.40;2.25;;;;;;;11.37;49.91;99579.11;1796196;79;21047;-53
2021/05/11 02:58:15;;;;;;;3.27;2.58;;;;;;;11.48;49.85;99575.23;1769520;79;21145;-54
2021/05/11 03:00:46;;;;;;;3.95;2.65;;;;;;;11.60;49.69;99576.00;1796419;78;21129;-53
2021/05/11 03:03:14;;;;;;;4.22;2.62;;;;;;;11.76;49.46;99577.28;1769772;79;20978;-54
2021/05/11 03:05:42;;;;;;;5.15;2.80;;;;;;;11.87;49.20;99574.73;1754920;80;21132;-52
2021/05/11 03:08:14;;;;;;;6.58;2.95;;;;;;;11.94;49.17;99577.53;1769021;79;21140;-53
2021/05/11 03:10:43;;;;;;;3.80;2.58;;;;;;;11.95;49.30;99589.84;1765828;78;21068;-54
2021/05/11 03:13:11;;;;;;;2.47;2.25;;;;;;;11.94;49.27;99582.87;1766309;79;21038;-53
2021/05/11 03:15:38;;;;;;;2.25;2.05;;;;;;;12.01;49.18;99581.14;1774881;79;21129;-53
2021/05/11 03:18:06;;;;;;;3.00;2.47;;;;;;;12.23;48.98;99578.47;1794095;78;21113;-55
2021/05/11 03:20:34;;;;;;;2.72;2.05;;;;;;;12.58;48.17;99581.03;1794865;78;21053;-55
2021/05/11 03:23:02;;;;;;;3.22;2.50;;;;;;;12.88;47.86;99581.89;1765548;79;21355;-54
2021/05/11 03:25:29;;;;;;;4.67;2.35;;;;;;;13.18;46.87;99579.61;1765471;79;21366;-55
2021/05/11 03:28:00;;;;;;;4.05;2.52;;;;;;;13.53;46.58;99584.71;1763112;79;21104;-54
2021/05/11 03:30:28;;;;;;;5.42;2.37;;;;;;;14.04;45.46;99582.32;1762926;79;21123;-52
2021/05/11 03:32:59;;;;;;;2.72;2.12;;;;;;;14.63;44.70;99584.23;1747299;79;21104;-53
2021/05/11 03:35:26;;;;;;;2.33;2.12;;;;;;;15.35;43.57;99591.95;1747218;78;21249;-54
2021/05/11 03:37:56;;;;;;;3.55;2.35;;;;;;;16.03;42.14;99588.34;1763942;79;21519;-55
2021/05/11 03:40:24;;;;;;;3.22;2.20;;;;;;;16.70;40.75;99585.56;1763587;78;21046;-53
2021/05/11 03:42:54;;;;;;;4.20;2.40;;;;;;;17.20;39.49;99583.55;1776727;79;21136;-55
2021/05/11 03:45:25;;;;;;;4.28;2.80;;;;;;;17.52;37.65;99580.98;1765873;78;21136;-53
2021/05/11 03:48:00;;;;;;;5.47;2.58;;;;;;;17.38;37.81;99580.70;1821029;76;22959;-55
2021/05/11 03:50:37;;;;;;;4.60;2.75;;;;;;;17.27;38.60;99577.62;1809057;78;28579;-53
2021/05/11 03:53:14;;;;;;;3.15;2.22;;;;;;;17.48;38.33;99575.70;1835653;78;22696;-56
2021/05/11 03:55:52;;;;;;;2.60;2.17;;;;;;;17.70;37.63;99585.17;1830600;78;22043;-54
2021/05/11 03:58:38;;;;;;;3.47;2.15;;;;;;;17.67;37.94;99587.78;1809343;78;21004;-54
2021/05/11 04:01:16;;;;;;;4.92;2.22;;;;;;;17.81;37.74;99581.80;1813974;76;22704;-54
2021/05/11 04:03:53;;;;;;;3.35;2.62;;;;;;;17.65;37.45;99580.41;1795903;78;22087;-55
2021/05/11 04:06:51;;;;;;;3.00;2.47;;;;;;;17.70;37.43;99585.17;1858895;75;23293;-56
2021/05/11 04:09:55;;;;;;;3.05;2.40;;;;;;;17.64;37.44;99580.64;1817303;78;23299;-54
2021/05/11 04:12:50;;;;;;;3.40;2.87;;;;;;;17.65;37.47;99584.45;1821282;76;22667;-54
2021/05/11 04:18:10;;;;;;;3.85;2.17;;;;;;;17.78;36.16;99586.28;1835392;78;22674;-53
2021/05/11 04:20:48;;;;;;;3.33;2.10;;;;;;;17.59;35.57;99589.36;1799729;78;22081;-53
2021/05/11 04:23:34;;;;;;;5.55;2.12;;;;;;;17.46;36.45;99596.61;1743566;79;21331;-54
2021/05/11 04:26:12;;;;;;;3.20;2.30;;;;;;;17.82;36.06;99591.02;1781433;78;22001;-54
2021/05/11 04:28:49;;;;;;;2.62;2.25;;;;;;;18.13;35.09;99587.53;1830888;78;22682;-56
2021/05/11 04:31:37;;;;;;;5.20;2.27;;;;;;;18.51;35.16;99597.48;1828544;76;22730;-54
2021/05/11 04:34:11;;;;;;;2.70;2.12;;;;;;;19.23;33.91;99597.66;1838581;76;22764;-56
2021/05/11 04:36:48;;;;;;;4.00;2.50;;;;;;;19.69;32.47;99599.35;1778525;78;28276;-56
2021/05/11 04:39:25;;;;;;;;;;;;;;;19.98;32.79;99602.31;1838985;78;21985;-52
2021/05/11 04:42:02;;;;;;;4.47;2.00;;;;;;;20.38;32.30;99616.96;1770134;79;22683;-52
2021/05/11 04:44:39;;;;;;;3.70;2.30;;;;;;;21.08;31.04;99600.88;1766392;78;27785;-61
2021/05/11 04:47:21;;;;;;;2.47;1.80;;;;;;;21.53;30.23;99600.01;1810954;78;23579;-54
2021/05/11 04:49:58;;;;;;;3.75;2.42;;;;;;;21.61;29.50;99600.20;1811398;78;22712;-51
2021/05/11 04:52:35;;;;;;;2.15;1.80;;;;;;;21.64;29.40;99596.98;1806652;78;22790;-55
2021/05/11 04:55:21;;;;;;;4.60;2.00;;;;;;;21.73;29.53;99596.92;1777436;79;21041;-48
2021/05/11 04:57:56;;;;;;;5.03;1.70;;;;;;;22.52;28.36;99588.44;1831097;76;22748;-58
2021/05/11 05:00:33;;;;;;;3.80;1.70;;;;;;;23.59;25.95;99587.69;1815240;76;22797;-57
2021/05/11 05:03:14;;;;;;;1.95;1.40;;;;;;;23.66;25.84;99585.59;1824045;76;22853;-54
2021/05/11 05:05:49;;;;;;;2.10;1.72;;;;;;;23.77;25.85;99589.56;1818051;77;22480;-56
2021/05/11 05:08:26;;;;;;;2.05;1.72;;;;;;;23.78;25.25;99595.78;1828522;78;22662;-61
2021/05/11 05:11:04;;;;;;;2.70;1.42;;;;;;;23.60;24.93;99594.74;1769477;79;22781;-67
2021/05/11 05:13:40;;;;;;;3.08;1.60;;;;;;;23.57;25.12;99606.92;1778520;79;28371;-59
2021/05/11 05:16:24;;;;;;;2.50;1.60;;;;;;;23.48;24.56;99593.52;1825704;77;22759;-57
2021/05/11 05:19:04;;;;;;;3.92;1.77;;;;;;;23.60;24.75;99581.99;1838611;77;22767;-61
2021/05/11 05:21:50;;;;;;;3.15;1.77;;;;;;;23.87;24.72;99580.70;1802391;78;21494;-59
2021/05/11 05:24:45;;;;;;;5.03;1.87;;;;;;;23.02;25.51;99579.78;1827993;78;22740;-58
2021/05/11 05:27:24;;;;;;;2.52;1.82;;;;;;;22.51;26.64;99578.65;1754642;79;22834;-57
2021/05/11 05:30:22;;;;;;;3.08;1.90;;;;;;;22.61;25.69;99588.31;1876271;75;22963;-57
2021/05/11 05:33:02;;;;;;;3.90;1.70;;;;;;;22.44;26.13;99572.58;1839498;78;22672;-59
2021/05/11 05:35:40;;;;;;;1.52;1.40;;;;;;;21.70;26.83;99590.63;1833756;76;22701;-59
2021/05/11 05:38:18;;;;;;;2.20;1.50;;;;;;;21.72;26.69;99593.91;1826817;77;23467;-60
2021/05/11 05:43:34;;;;;;;1.77;1.50;;;;;;;21.63;27.46;99569.64;1837027;76;22663;-58
2021/05/11 05:46:11;;;;;;;;;;;;;;;21.29;28.12;99563.77;1800126;78;22013;-62
2021/05/11 05:48:48;;;;;;;2.92;1.47;;;;;;;21.46;27.99;99562.79;1821890;78;22750;-59
2021/05/11 05:51:27;;;;;;;7.83;1.72;;;;;;;21.33;27.41;99572.52;1830677;77;23226;-58
2021/05/11 05:54:03;;;;;;;1.70;1.60;;;;;;;21.04;27.88;99572.64;1781890;79;27840;-61
2021/05/11 05:56:40;;;;;;;4.25;1.90;;;;;;;21.18;28.69;99578.12;1803535;78;22690;-58
2021/05/11 05:59:16;;;;;;;2.30;1.70;;;;;;;21.22;27.65;99579.31;1790791;77;27813;-63
2021/05/11 06:01:54;;;;;;;4.35;2.60;;;;;;;20.80;28.44;99588.86;1761757;79;21997;-60
2021/05/11 06:04:32;;;;;;;4.87;2.85;;;;;;;20.46;29.71;99581.51;1824954;76;22375;-59
2021/05/11 06:07:08;;;;;;;2.98;2.02;;;;;;;20.25;30.65;99570.70;1829253;78;22644;-57
2021/05/11 06:09:45;;;;;;;6.22;2.15;;;;;;;20.50;31.03;99577.27;1820291;78;22799;-58
2021/05/11 06:12:41;;;;;;;4.40;2.52;;;;;;;20.57;30.28;99577.19;1830059;78;23274;-58
2021/05/11 06:18:00;;;;;;;2.40;1.90;;;;;;;20.53;30.16;99569.23;1805494;79;26808;-56
2021/05/11 06:20:37;;;;;;;;;;;;;;;20.47;30.69;99583.66;1794289;78;22938;-57
2021/05/11 06:23:14;;;;;;;4.42;1.70;;;;;;;20.59;29.78;99564.26;1834798;76;22708;-55
2021/05/11 06:25:52;;;;;;;1.72;1.55;;;;;;;20.61;29.68;99570.25;1800189;78;22642;-55
2021/05/11 06:28:28;;;;;;;3.80;1.60;;;;;;;20.38;29.82;99568.33;1796666;78;28463;-54
2021/05/11 06:31:12;;;;;;;2.75;1.67;;;;;;;20.41;30.15;99566.52;1834798;78;22856;-55
2021/05/11 06:33:59;;;;;;;;;;;;;;;;;;;;;
2021/05/11 06:36:29;;;;;;;4.40;2.12;;;;;;;20.73;28.63;99561.09;1837585;77;22730;-56
2021/05/11 06:39:13;;;;;;;2.67;1.60;;;;;;;20.76;29.07;99564.69;1819129;77;22787;-55
2021/05/11 06:41:54;;;;;;;3.85;1.30;;;;;;;20.70;28.85;99562.11;1805751;78;22762;-54
2021/05/11 06:44:42;;;;;;;1.77;1.25;;;;;;;20.78;29.21;99567.97;1827076;77;22775;-58
2021/05/11 06:52:54;;;;;;;1.67;1.57;;;;;;;22.27;27.11;99547.32;1808035;78;22790;-55
2021/05/11 06:55:24;;;;;;;1.72;1.50;;;;;;;22.65;26.52;99557.80;1806959;78;23338;-55
2021/05/11 06:58:03;;;;;;;2.42;1.40;;;;;;;22.82;25.57;99551.52;1806237;76;28234;-54
2021/05/11 07:00:50;;;;;;;1.95;1.60;;;;;;;22.61;26.00;99544.41;1740162;81;20994;-57
2021/05/11 07:03:28;;;;;;;4.17;1.35;;;;;;;22.73;25.05;99542.45;1824986;77;22764;-54
2021/05/11 07:06:05;;;;;;;7.50;1.52;;;;;;;22.74;25.41;99543.27;1806809;78;22758;-56
2021/05/11 07:14:12;;;;;;;;;;;;;;;23.24;24.26;99534.53;1776569;78;21989;-54
2021/05/11 07:16:49;;;;;;;5.00;1.75;;;;;;;23.60;24.38;99533.64;1812871;78;22750;-54
2021/05/11 07:19:28;;;;;;;1.85;1.27;;;;;;;24.19;23.49;99536.80;1825234;77;22708;-54
2021/05/11 07:22:07;;;;;;;2.98;1.37;;;;;;;24.60;23.31;99535.25;1817885;77;22739;-55
2021/05/11 07:24:46;;;;;;;2.45;1.20;;;;;;;24.85;22.46;99530.02;1823163;77;22660;-53
2021/05/11 07:27:50;;;;;;;2.08;1.32;;;;;;;25.15;21.74;99531.59;1804362;79;21204;-56
2021/05/11 07:30:16;;;;;;;2.80;1.30;;;;;;;25.60;21.86;99531.56;1808274;78;22774;-55
2021/05/11 07:32:54;;;;;;;1.72;1.47;;;;;;;25.81;21.08;99521.56;1810133;78;22680;-56
2021/05/11 07:35:40;;;;;;;1.40;1.12;;;;;;;25.62;21.36;99530.75;1839546;78;22775;-54
2021/05/11 07:38:15;;;;;;;2.92;1.50;;;;;;;25.73;20.90;99518.24;1810684;78;22832;-55
2021/05/11 07:40:53;;;;;;;1.35;1.25;;;;;;;25.71;21.44;99524.51;1822516;78;22720;-55
2021/05/11 07:43:31;;;;;;;1.80;1.60;;;;;;;25.99;21.10;99530.05;1832406;78;22054;-55
2021/05/11 08:15:02;;;;;;;1.57;1.30;;;;;;;24.42;20.51;99522.05;1755599;79;22327;-57
2021/05/11 08:17:36;;;;;;;2.45;1.20;;;;;;;24.02;20.33;99508.86;1811491;78;23106;-54
2021/05/11 08:28:52;;;;;;;2.60;1.20;;;;;;;23.22;22.20;99498.69;1831992;78;22740;-57
2021/05/11 08:31:30;;;;;;;2.53;1.23;;;;;;;23.42;22.25;99502.75;1808225;76;27949;-61
2021/05/11 08:34:07;;;;;;;1.70;1.20;;;;;;;23.50;21.34;99504.48;1806169;78;23354;-57
2021/05/11 08:36:44;;;;;;;3.35;1.40;;;;;;;23.51;21.35;99496.64;1805907;78;22726;-59
2021/05/11 08:39:22;;;;;;;2.65;1.10;;;;;;;23.55;21.99;99506.44;1810640;78;22828;-57
2021/05/11 08:41:59;;;;;;;2.15;1.10;;;;;;;23.56;21.11;99497.23;1815281;77;22796;-55
2021/05/11 08:44:36;;;;;;;1.30;1.20;;;;;;;23.83;21.59;99499.42;1785066;79;28578;-56
2021/05/11 08:47:18;;;;;;;2.40;1.40;;;;;;;24.04;21.03;99492.32;1821702;78;23301;-61
2021/05/11 08:49:54;;;;;;;3.17;1.40;;;;;;;24.37;20.67;99504.34;1824774;77;23370;-55
2021/05/11 08:55:33;;;;;;;1.60;1.42;;;;;;;23.94;21.46;99487.05;1802184;78;22722;-59
2021/05/11 09:07:17;;;;;;;2.12;1.42;;;;;;;22.80;22.27;99483.98;1827555;78;22660;-59
2021/05/11 09:27:23;;;;;;;2.80;1.32;;;;;;;23.09;21.62;99503.13;1807654;78;22986;-58
2021/05/11 09:56:41;;;;;;;2.87;1.30;;;;;;;22.63;19.62;99452.02;1831405;77;23397;-58
2021/05/11 10:10:34;;;;;;;4.30;1.50;;;;;;;22.95;19.87;99447.58;1817876;76;27961;-52
2021/05/11 10:48:35;;;;;;;2.62;1.20;;;;;;;22.52;19.41;99421.20;1825870;76;22415;-56
2021/05/11 10:51:21;;;;;;;1.32;1.20;;;;;;;22.56;19.26;99405.23;1835456;78;23226;-55
2021/05/11 10:54:03;;;;;;;3.90;1.15;;;;;;;22.76;19.95;99398.77;1813843;78;22691;-56
2021/05/11 10:56:47;;;;;;;3.22;1.40;;;;;;;23.04;19.41;99389.64;1812505;78;23097;-54
2021/05/11 11:05:07;;;;;;;5.53;1.37;;;;;;;22.75;19.56;99403.92;1826019;77;22780;-54
2021/05/11 11:07:48;;;;;;;2.80;1.42;;;;;;;22.56;20.68;99394.39;1809543;78;22875;-55
2021/05/11 11:10:33;;;;;;;3.47;1.25;;;;;;;22.56;20.68;99394.39;1712250;82;20950;-54
2021/05/11 11:13:29;;;;;;;1.62;1.52;;;;;;;22.64;19.47;99405.67;1873896;75;22691;-55
2021/05/11 11:16:05;;;;;;;1.30;1.10;;;;;;;22.61;19.54;99393.93;1807814;78;22763;-57
2021/05/11 11:18:44;;;;;;;2.58;1.20;;;;;;;22.62;19.75;99384.77;1811445;78;23210;-57
2021/05/11 11:23:58;;;;;;;2.05;1.10;;;;;;;22.63;20.27;99381.53;1830937;77;22682;-57
2021/05/11 11:26:39;;;;;;;4.92;1.50;;;;;;;22.59;19.53;99373.56;1804857;77;22497;-53
2021/05/11 11:29:15;;;;;;;1.40;1.17;;;;;;;22.57;19.79;99374.36;1755524;79;22814;-56
2021/05/11 11:31:53;;;;;;;;;;;;;;;22.52;20.31;99362.92;1780890;78;22083;-56
2021/05/11 11:34:39;;;;;;;2.63;1.40;;;;;;;22.43;20.50;99366.28;1795453;78;27812;-54
2021/05/11 11:37:17;;;;;;;2.52;1.72;;;;;;;22.49;20.18;99359.34;1816467;78;22798;-58
2021/05/11 11:39:57;;;;;;;5.00;1.60;;;;;;;22.43;20.18;99348.67;1834318;78;22717;-56
2021/05/11 11:42:42;;;;;;;2.30;1.42;;;;;;;22.47;20.36;99347.12;1835849;76;22745;-58
2021/05/11 11:45:27;;;;;;;4.78;1.42;;;;;;;22.43;20.39;99345.95;1809473;78;22837;-59
2021/05/11 11:48:05;;;;;;;1.50;1.40;;;;;;;22.40;20.69;99350.52;1808489;78;22707;-55
2021/05/11 11:50:42;;;;;;;4.40;1.40;;;;;;;22.27;20.57;99342.22;1882123;75;22664;-58
2021/05/11 11:53:30;;;;;;;2.83;1.22;;;;;;;22.21;20.37;99342.41;1847203;77;20973;-55
2021/05/11 11:59:06;;;;;;;2.05;1.50;;;;;;;22.28;20.17;99328.14;1807416;78;22773;-62
2021/05/11 12:01:58;;;;;;;3.08;1.80;;;;;;;22.29;20.32;99336.56;1837380;77;23117;-57
2021/05/11 12:04:36;;;;;;;1.35;1.25;;;;;;;22.24;20.61;99335.14;1823408;78;22740;-62
2021/05/11 12:07:15;;;;;;;2.42;1.60;;;;;;;22.15;20.62;99338.80;1803560;77;28402;-62
2021/05/11 12:09:53;;;;;;;2.80;1.17;;;;;;;22.10;20.33;99334.12;1811304;78;22702;-63
2021/05/11 12:12:29;;;;;;;5.05;1.85;;;;;;;21.98;20.10;99334.73;1802233;77;23614;-61
2021/05/11 12:15:13;;;;;;;2.15;1.30;;;;;;;21.96;20.26;99335.52;1812415;77;22423;-61
2021/05/11 12:20:43;;;;;;;5.20;1.70;;;;;;;22.05;21.00;99347.59;1841443;78;22757;-62
2021/05/11 12:23:20;;;;;;;1.32;1.10;;;;;;;22.05;19.41;99335.94;1805663;78;22748;-64
2021/05/11 12:26:02;;;;;;;;;;;;;;;21.94;19.16;99321.41;1780438;78;22085;-64
2021/05/11 12:28:43;;;;;;;1.27;1.17;;;;;;;21.85;19.88;99320.14;1829974;77;22721;-61
2021/05/11 12:31:26;;;;;;;1.37;1.10;;;;;;;21.87;19.96;99311.30;1847171;76;23305;-63
2021/05/11 12:34:09;;;;;;;1.95;1.22;;;;;;;21.91;20.73;99308.89;1796344;77;22707;-56
2021/05/11 12:36:49;;;;;;;4.87;1.32;;;;;;;21.90;20.88;99309.42;1823496;78;23773;-55
2021/05/11 12:42:23;;;;;;;4.53;1.57;;;;;;;21.99;19.79;99317.95;1832140;77;22693;-54
2021/05/11 12:45:07;;;;;;;1.30;1.00;;;;;;;21.86;20.06;99312.35;1828587;77;22705;-57
2021/05/11 12:47:53;;;;;;;1.37;0.93;;;;;;;21.79;20.89;99309.49;1805997;78;22719;-56
2021/05/11 12:50:43;;;;;;;3.60;1.30;;;;;;;21.79;20.27;99308.97;1779288;79;20931;-57
2021/05/11 12:56:23;;;;;;;2.42;1.30;;;;;;;21.90;20.25;99304.56;1822407;77;22709;-56
2021/05/11 13:16:14;;;;;;;2.52;1.12;;;;;;;22.10;20.05;99279.95;1823848;78;22652;-58
2021/05/11 13:33:13;;;;;;;0.75;0.75;;;;;;;22.12;19.45;99256.14;1806165;78;22639;-56
2021/05/11 13:35:38;;;;;;;;;;;;;;;22.16;19.35;99269.19;1830966;77;22166;-59
2021/05/11 13:38:22;;;;;;;1.80;0.98;;;;;;;22.19;19.90;99257.30;1840416;78;23293;-58
2021/05/11 13:41:00;;;;;;;1.20;1.10;;;;;;;22.20;19.70;99254.05;1800711;77;22718;-60
2021/05/11 13:43:37;;;;;;;1.10;1.00;;;;;;;22.15;18.87;99245.33;1821269;77;23345;-59
2021/05/11 13:46:14;;;;;;;4.00;1.30;;;;;;;22.08;19.16;99242.78;1782302;79;27908;-59
2021/05/11 13:49:14;;;;;;;3.00;0.88;;;;;;;22.07;20.18;99241.70;1859072;75;22708;-59
2021/05/11 13:51:50;;;;;;;1.17;1.05;;;;;;;22.14;20.47;99240.45;1829222;78;22760;-57
2021/05/11 13:54:27;;;;;;;3.02;1.27;;;;;;;22.22;20.67;99239.72;1814758;78;27961;-59
2021/05/11 14:03:00;;;;;;;4.72;0.82;;;;;;;22.26;18.28;99236.28;1786787;79;21017;-56
2021/05/11 14:05:38;;;;;;;1.87;0.72;;;;;;;22.31;18.50;99246.35;1824874;78;22651;-57
2021/05/11 14:08:15;;;;;;;1.60;0.78;;;;;;;22.33;18.93;99222.52;1852474;76;22627;-57
2021/05/11 14:10:52;;;;;;;;;;;;;;;22.35;18.33;99221.73;1829010;78;22027;-58
2021/05/11 14:13:36;;;;;;;0.88;0.82;;;;;;;22.31;18.62;99217.38;1840014;78;22637;-57
2021/05/11 14:16:14;;;;;;;;;;;;;;;22.28;18.91;99208.91;1842608;76;22059;-56
2021/05/11 14:18:51;;;;;;;1.05;0.70;;;;;;;22.24;18.51;99217.28;1809226;78;22738;-57
2021/05/11 14:21:29;;;;;;;1.02;0.90;;;;;;;22.26;18.90;99221.91;1824402;76;22647;-58
2021/05/11 14:24:08;;;;;;;5.22;1.07;;;;;;;22.27;18.55;99205.91;1835309;76;23315;-57
2021/05/11 14:26:47;;;;;;;4.58;1.05;;;;;;;22.26;19.27;99213.77;1825675;78;22868;-56
2021/05/11 14:29:30;;;;;;;4.92;1.05;;;;;;;22.27;20.02;99222.99;1818392;76;22691;-56
2021/05/11 14:32:07;;;;;;;;;;;;;;;22.33;20.63;99213.05;1787401;78;22080;-58
2021/05/11 14:34:46;;;;;;;1.98;0.90;;;;;;;22.37;19.25;99211.48;1830217;76;22778;-56
2021/05/11 14:37:25;;;;;;;1.40;0.95;;;;;;;22.31;19.55;99197.05;1814989;78;22699;-58
2021/05/11 14:40:14;;;;;;;1.37;0.75;;;;;;;22.26;19.56;99200.23;1777226;79;20930;-56
2021/05/11 14:42:53;;;;;;;1.25;1.00;;;;;;;22.27;20.30;99194.55;1810073;78;22636;-56
2021/05/11 14:45:31;;;;;;;1.20;1.00;;;;;;;22.26;20.55;99197.52;1809742;76;22798;-57
2021/05/11 14:48:08;;;;;;;2.60;0.90;;;;;;;22.27;20.57;99194.55;1774007;78;27906;-57
2021/05/11 14:50:45;;;;;;;3.40;1.20;;;;;;;22.26;20.60;99183.44;1764914;78;28461;-55
2021/05/11 14:53:22;;;;;;;;;;;;;;;22.31;21.23;99187.56;1844365;78;22095;-58
2021/05/11 14:56:01;;;;;;;1.47;1.20;;;;;;;22.26;20.44;99188.03;1806089;76;27970;-56
2021/05/11 14:58:44;;;;;;;2.50;1.00;;;;;;;22.32;20.82;99188.36;1839962;76;22732;-55
2021/05/11 15:01:27;;;;;;;2.70;1.15;;;;;;;22.28;20.36;99182.64;1808559;76;22869;-57
2021/05/11 15:04:03;;;;;;;4.22;1.80;;;;;;;22.28;20.57;99182.64;1811924;78;28427;-58
2021/05/11 15:06:40;;;;;;;1.83;1.07;;;;;;;22.32;19.96;99173.45;1817725;78;27769;-55
2021/05/11 15:09:17;;;;;;;1.83;0.90;;;;;;;22.32;19.96;99181.58;1767992;78;28049;-56
2021/05/11 15:11:55;;;;;;;1.32;0.90;;;;;;;22.32;20.48;99178.87;1773929;78;22915;-59
2021/05/11 15:14:52;;;;;;;2.55;1.37;;;;;;;22.25;19.81;99179.61;1871224;75;22733;-59
2021/05/11 15:20:08;;;;;;;;;;;;;;;22.18;19.89;99160.85;1835485;76;22095;-56
2021/05/11 15:22:50;;;;;;;3.30;1.32;;;;;;;22.19;20.50;99163.03;1758528;78;27915;-60
2021/05/11 15:25:27;;;;;;;2.70;0.90;;;;;;;22.18;21.20;99170.86;1816290;78;22179;-59
2021/05/11 15:28:02;;;;;;;1.22;1.00;;;;;;;22.16;21.15;99168.95;1841704;78;24027;-60
2021/05/11 15:30:38;;;;;;;0.93;0.80;;;;;;;22.12;21.17;99165.39;1811859;76;22687;-58
2021/05/11 15:33:15;;;;;;;4.80;1.45;;;;;;;22.08;21.76;99160.17;1825202;78;22700;-60
2021/05/11 15:35:54;;;;;;;;;;;;;;;22.05;23.04;99163.41;1835718;76;22186;-58
2021/05/11 15:38:31;;;;;;;4.10;1.27;;;;;;;22.01;22.90;99164.97;1822983;78;22786;-58
2021/05/11 15:41:09;;;;;;;1.22;1.12;;;;;;;21.99;23.45;99160.34;1830225;76;22683;-56
2021/05/11 15:43:46;;;;;;;;;;;;;;;21.98;23.48;99155.98;1844444;78;22189;-56
2021/05/11 15:46:29;;;;;;;2.62;1.35;;;;;;;21.99;23.88;99158.98;1835415;77;23353;-58
2021/05/11 15:49:12;;;;;;;3.42;1.90;;;;;;;21.97;24.65;99158.95;1893378;74;22821;-56
2021/05/11 15:51:48;;;;;;;3.35;1.90;;;;;;;21.93;24.75;99157.28;1787857;79;28013;-59
2021/05/11 15:54:29;;;;;;;2.27;1.40;;;;;;;21.89;24.72;99152.09;1763886;79;22812;-60
2021/05/11 15:57:12;;;;;;;3.65;1.40;;;;;;;21.86;24.94;99158.53;1841673;78;22765;-56
2021/05/11 15:59:49;;;;;;;;;;;;;;;21.83;24.51;99157.12;1792196;78;22187;-57
2021/05/11 16:02:25;;;;;;;3.02;1.20;;;;;;;21.82;25.29;99150.61;1830561;78;22626;-60
2021/05/11 16:05:03;;;;;;;;;;;;;;;21.82;25.40;99147.34;1779644;78;22095;-60
2021/05/11 16:07:41;;;;;;;3.27;1.40;;;;;;;21.78;25.77;99148.92;1766088;78;28720;-57
2021/05/11 16:10:26;;;;;;;1.37;1.22;;;;;;;21.75;25.59;99141.30;1818384;78;22838;-59
2021/05/11 16:13:04;;;;;;;1.55;1.32;;;;;;;21.72;25.37;99144.50;1801797;76;22675;-59
2021/05/11 16:15:41;;;;;;;2.75;1.20;;;;;;;21.69;25.62;99145.00;1811224;79;23310;-53
2021/05/11 16:18:19;;;;;;;;;;;;;;;21.66;25.79;99147.41;1859117;77;22630;-57
2021/05/11 16:20:56;;;;;;;3.97;1.30;;;;;;;21.63;26.02;99142.48;1751997;79;28595;-56
2021/05/11 16:23:33;;;;;;;;;;;;;;;21.61;26.59;99141.39;1788293;78;22056;-59
2021/05/11 16:26:10;;;;;;;2.60;1.30;;;;;;;21.56;26.31;99135.91;1799752;78;22794;-56
2021/05/11 16:28:49;;;;;;;7.17;1.50;;;;;;;21.55;26.30;99138.33;1756942;79;22692;-56
2021/05/11 16:31:26;;;;;;;3.60;1.67;;;;;;;21.51;26.38;99137.16;1766740;79;22823;-56
2021/05/11 16:34:04;;;;;;;;;;;;;;;21.47;26.99;99139.57;1805826;78;22018;-56
2021/05/11 16:36:42;;;;;;;3.40;1.50;;;;;;;21.45;27.08;99139.53;1782210;78;28590;-57
2021/05/11 16:39:21;;;;;;;2.55;1.20;;;;;;;21.41;27.11;99142.44;1833897;78;22677;-56
2021/05/11 16:41:58;;;;;;;3.33;1.40;;;;;;;21.37;27.10;99135.89;1783883;79;28321;-55
2021/05/11 16:44:38;;;;;;;;;;;;;;;21.37;27.33;99131.83;1778978;78;22084;-54
2021/05/11 16:47:14;;;;;;;3.47;3.17;;;;;;;21.31;27.45;99135.52;1836584;76;23209;-58
2021/05/11 16:49:59;;;;;;;3.92;2.55;;;;;;;21.29;27.80;99138.48;1784020;79;22820;-57
2021/05/11 16:52:36;;;;;;;4.30;1.52;;;;;;;21.21;27.51;99129.95;1816476;78;22698;-58
2021/05/11 16:55:15;;;;;;;;;;;;;;;21.16;27.83;99128.00;1834792;77;22141;-57
2021/05/11 16:57:58;;;;;;;2.87;1.10;;;;;;;21.10;27.99;99122.75;1834058;78;23308;-56
2021/05/11 17:00:36;;;;;;;1.30;1.20;;;;;;;21.05;28.14;99122.11;1828491;76;22649;-57
2021/05/11 17:03:14;;;;;;;1.40;1.00;;;;;;;21.01;28.65;99126.38;1762602;78;28383;-57
2021/05/11 17:05:51;;;;;;;1.50;1.07;;;;;;;20.93;28.97;99114.63;1761822;79;22851;-57
2021/05/11 17:08:29;;;;;;;2.25;1.10;;;;;;;20.85;29.16;99122.61;1822221;76;22700;-55